sensor_id;sensor_type;location;lat;lon;timestamp;P1;durP1;ratioP1;P2;durP2;ratioP2
75441;SDS011;64019;48.312;14.226;2023-07-31T00:02:14;6.87;;;2.27;;
75441;SDS011;64019;48.312;14.226;2023-07-31T00:04:39;3.13;;;2.13;;
75441;SDS011;64019;48.312;14.226;2023-07-31T00:07:05;5.87;;;2.30;;
75441;SDS011;64019;48.312;14.226;2023-07-31T00:09:32;4.10;;;2.30;;
75441;SDS011;64019;48.312;14.226;2023-07-31T00:11:58;3.90;;;2.33;;
75441;SDS011;64019;48.312;14.226;2023-07-31T00:14:24;5.97;;;2.80;;
75441;SDS011;64019;48.312;14.226;2023-07-31T00:16:50;4.20;;;2.27;;
75441;SDS011;64019;48.312;14.226;2023-07-31T00:19:15;4.37;;;2.10;;
75441;SDS011;64019;48.312;14.226;2023-07-31T00:21:41;2.93;;;2.10;;
75441;SDS011;64019;48.312;14.226;2023-07-31T00:24:07;4.30;;;2.40;;
75441;SDS011;64019;48.312;14.226;2023-07-31T00:26:32;3.97;;;2.17;;
75441;SDS011;64019;48.312;14.226;2023-07-31T00:28:58;2.67;;;2.00;;
75441;SDS011;64019;48.312;14.226;2023-07-31T00:31:24;5.63;;;2.50;;
75441;SDS011;64019;48.312;14.226;2023-07-31T00:33:49;2.63;;;2.30;;
75441;SDS011;64019;48.312;14.226;2023-07-31T00:36:15;3.93;;;2.10;;
75441;SDS011;64019;48.312;14.226;2023-07-31T00:38:40;4.27;;;2.20;;
75441;SDS011;64019;48.312;14.226;2023-07-31T00:41:06;7.63;;;2.20;;
75441;SDS011;64019;48.312;14.226;2023-07-31T00:43:32;3.50;;;1.97;;
75441;SDS011;64019;48.312;14.226;2023-07-31T00:45:57;6.57;;;2.03;;
75441;SDS011;64019;48.312;14.226;2023-07-31T00:48:23;2.07;;;1.80;;
75441;SDS011;64019;48.312;14.226;2023-07-31T00:50:49;3.70;;;2.13;;
75441;SDS011;64019;48.312;14.226;2023-07-31T00:53:15;6.73;;;2.30;;
75441;SDS011;64019;48.312;14.226;2023-07-31T00:55:41;6.17;;;2.23;;
75441;SDS011;64019;48.312;14.226;2023-07-31T00:58:07;4.67;;;1.80;;
75441;SDS011;64019;48.312;14.226;2023-07-31T01:00:33;3.33;;;2.40;;
75441;SDS011;64019;48.312;14.226;2023-07-31T01:02:59;4.73;;;1.97;;
75441;SDS011;64019;48.312;14.226;2023-07-31T01:05:28;2.87;;;1.90;;
75441;SDS011;64019;48.312;14.226;2023-07-31T01:08:49;2.53;;;2.27;;
75441;SDS011;64019;48.312;14.226;2023-07-31T01:11:34;3.47;;;2.67;;
75441;SDS011;64019;48.312;14.226;2023-07-31T01:14:08;4.67;;;2.27;;
75441;SDS011;64019;48.312;14.226;2023-07-31T01:16:33;3.10;;;2.23;;
75441;SDS011;64019;48.312;14.226;2023-07-31T01:18:59;17.80;;;3.17;;
75441;SDS011;64019;48.312;14.226;2023-07-31T01:24:15;5.03;;;3.00;;
75441;SDS011;64019;48.312;14.226;2023-07-31T01:26:56;3.63;;;2.17;;
75441;SDS011;64019;48.312;14.226;2023-07-31T01:29:32;4.93;;;2.03;;
75441;SDS011;64019;48.312;14.226;2023-07-31T01:32:08;4.77;;;2.33;;
75441;SDS011;64019;48.312;14.226;2023-07-31T01:34:36;5.53;;;1.73;;
75441;SDS011;64019;48.312;14.226;2023-07-31T01:37:02;3.27;;;2.37;;
75441;SDS011;64019;48.312;14.226;2023-07-31T01:39:28;3.50;;;2.43;;
75441;SDS011;64019;48.312;14.226;2023-07-31T01:41:54;8.77;;;2.27;;
75441;SDS011;64019;48.312;14.226;2023-07-31T01:44:19;3.20;;;2.27;;
75441;SDS011;64019;48.312;14.226;2023-07-31T01:46:45;8.83;;;3.40;;
75441;SDS011;64019;48.312;14.226;2023-07-31T01:49:11;2.43;;;2.00;;
75441;SDS011;64019;48.312;14.226;2023-07-31T01:51:36;5.87;;;2.00;;
75441;SDS011;64019;48.312;14.226;2023-07-31T01:54:02;6.00;;;2.17;;
75441;SDS011;64019;48.312;14.226;2023-07-31T01:56:28;2.10;;;1.73;;
75441;SDS011;64019;48.312;14.226;2023-07-31T01:58:54;4.33;;;2.30;;
75441;SDS011;64019;48.312;14.226;2023-07-31T02:01:19;2.23;;;1.67;;
75441;SDS011;64019;48.312;14.226;2023-07-31T02:03:45;4.87;;;2.30;;
75441;SDS011;64019;48.312;14.226;2023-07-31T02:06:11;5.00;;;2.20;;
75441;SDS011;64019;48.312;14.226;2023-07-31T02:08:36;6.50;;;2.43;;
75441;SDS011;64019;48.312;14.226;2023-07-31T02:11:03;6.67;;;2.40;;
75441;SDS011;64019;48.312;14.226;2023-07-31T02:13:28;2.80;;;1.63;;
75441;SDS011;64019;48.312;14.226;2023-07-31T02:15:54;2.63;;;1.70;;
75441;SDS011;64019;48.312;14.226;2023-07-31T02:18:20;15.17;;;2.00;;
75441;SDS011;64019;48.312;14.226;2023-07-31T02:20:50;6.57;;;2.27;;
75441;SDS011;64019;48.312;14.226;2023-07-31T02:23:17;3.80;;;1.70;;
75441;SDS011;64019;48.312;14.226;2023-07-31T02:25:43;3.00;;;2.23;;
75441;SDS011;64019;48.312;14.226;2023-07-31T02:28:09;3.20;;;1.90;;
75441;SDS011;64019;48.312;14.226;2023-07-31T02:30:35;4.57;;;2.10;;
75441;SDS011;64019;48.312;14.226;2023-07-31T02:33:01;6.13;;;2.07;;
75441;SDS011;64019;48.312;14.226;2023-07-31T02:35:26;4.80;;;1.70;;
75441;SDS011;64019;48.312;14.226;2023-07-31T02:37:52;3.40;;;2.13;;
75441;SDS011;64019;48.312;14.226;2023-07-31T02:40:18;5.10;;;2.20;;
75441;SDS011;64019;48.312;14.226;2023-07-31T02:42:43;2.90;;;1.80;;
75441;SDS011;64019;48.312;14.226;2023-07-31T02:45:09;4.87;;;1.93;;
75441;SDS011;64019;48.312;14.226;2023-07-31T02:47:35;4.00;;;1.77;;
75441;SDS011;64019;48.312;14.226;2023-07-31T02:50:01;2.53;;;1.73;;
75441;SDS011;64019;48.312;14.226;2023-07-31T02:52:28;4.07;;;1.90;;
75441;SDS011;64019;48.312;14.226;2023-07-31T02:54:54;5.43;;;2.07;;
75441;SDS011;64019;48.312;14.226;2023-07-31T02:57:19;2.87;;;1.70;;
75441;SDS011;64019;48.312;14.226;2023-07-31T02:59:45;2.77;;;1.70;;
75441;SDS011;64019;48.312;14.226;2023-07-31T03:02:11;5.03;;;2.10;;
75441;SDS011;64019;48.312;14.226;2023-07-31T03:04:38;5.50;;;2.10;;
75441;SDS011;64019;48.312;14.226;2023-07-31T03:07:04;5.60;;;1.90;;
75441;SDS011;64019;48.312;14.226;2023-07-31T03:09:30;5.50;;;2.03;;
75441;SDS011;64019;48.312;14.226;2023-07-31T03:11:56;2.70;;;1.70;;
75441;SDS011;64019;48.312;14.226;2023-07-31T03:14:21;4.93;;;2.00;;
75441;SDS011;64019;48.312;14.226;2023-07-31T03:16:47;5.63;;;2.40;;
75441;SDS011;64019;48.312;14.226;2023-07-31T03:19:13;3.77;;;1.70;;
75441;SDS011;64019;48.312;14.226;2023-07-31T03:47:59;4.47;;;2.10;;
75441;SDS011;64019;48.312;14.226;2023-07-31T03:50:25;3.97;;;2.07;;
75441;SDS011;64019;48.312;14.226;2023-07-31T03:52:51;6.23;;;2.50;;
75441;SDS011;64019;48.312;14.226;2023-07-31T03:55:17;7.00;;;1.90;;
75441;SDS011;64019;48.312;14.226;2023-07-31T03:57:43;3.23;;;2.27;;
75441;SDS011;64019;48.312;14.226;2023-07-31T04:00:09;9.27;;;2.53;;
75441;SDS011;64019;48.312;14.226;2023-07-31T04:02:35;3.43;;;2.37;;
75441;SDS011;64019;48.312;14.226;2023-07-31T04:05:00;6.13;;;2.20;;
75441;SDS011;64019;48.312;14.226;2023-07-31T04:07:26;10.33;;;2.40;;
75441;SDS011;64019;48.312;14.226;2023-07-31T04:09:52;4.63;;;2.00;;
75441;SDS011;64019;48.312;14.226;2023-07-31T04:12:17;3.53;;;2.00;;
75441;SDS011;64019;48.312;14.226;2023-07-31T04:14:43;4.47;;;2.43;;
75441;SDS011;64019;48.312;14.226;2023-07-31T04:17:08;4.43;;;2.10;;
75441;SDS011;64019;48.312;14.226;2023-07-31T04:19:34;6.10;;;2.60;;
75441;SDS011;64019;48.312;14.226;2023-07-31T04:22:00;4.00;;;2.20;;
75441;SDS011;64019;48.312;14.226;2023-07-31T04:24:25;2.93;;;2.17;;
75441;SDS011;64019;48.312;14.226;2023-07-31T04:26:51;3.70;;;2.20;;
75441;SDS011;64019;48.312;14.226;2023-07-31T04:29:17;3.80;;;1.80;;
75441;SDS011;64019;48.312;14.226;2023-07-31T04:31:43;3.23;;;1.83;;
75441;SDS011;64019;48.312;14.226;2023-07-31T04:34:09;10.10;;;2.00;;
75441;SDS011;64019;48.312;14.226;2023-07-31T04:36:34;2.27;;;1.90;;
75441;SDS011;64019;48.312;14.226;2023-07-31T04:39:00;3.47;;;2.37;;
75441;SDS011;64019;48.312;14.226;2023-07-31T04:41:26;5.10;;;2.13;;
75441;SDS011;64019;48.312;14.226;2023-07-31T04:43:52;5.97;;;2.50;;
75441;SDS011;64019;48.312;14.226;2023-07-31T04:46:17;4.73;;;2.60;;
75441;SDS011;64019;48.312;14.226;2023-07-31T04:48:43;9.00;;;2.93;;
75441;SDS011;64019;48.312;14.226;2023-07-31T04:51:09;3.37;;;1.90;;
75441;SDS011;64019;48.312;14.226;2023-07-31T04:53:35;4.00;;;2.00;;
75441;SDS011;64019;48.312;14.226;2023-07-31T04:56:01;4.57;;;2.27;;
75441;SDS011;64019;48.312;14.226;2023-07-31T04:58:27;3.10;;;2.60;;
75441;SDS011;64019;48.312;14.226;2023-07-31T05:00:52;5.57;;;2.20;;
75441;SDS011;64019;48.312;14.226;2023-07-31T05:03:18;4.27;;;2.30;;
75441;SDS011;64019;48.312;14.226;2023-07-31T05:05:44;4.10;;;2.53;;
75441;SDS011;64019;48.312;14.226;2023-07-31T05:14:55;7.67;;;2.87;;
75441;SDS011;64019;48.312;14.226;2023-07-31T05:17:20;14.80;;;3.00;;
75441;SDS011;64019;48.312;14.226;2023-07-31T05:40:16;4.37;;;2.37;;
75441;SDS011;64019;48.312;14.226;2023-07-31T05:42:42;7.60;;;2.57;;
75441;SDS011;64019;48.312;14.226;2023-07-31T05:45:08;4.27;;;2.40;;
75441;SDS011;64019;48.312;14.226;2023-07-31T05:47:34;5.73;;;2.00;;
75441;SDS011;64019;48.312;14.226;2023-07-31T05:50:00;8.97;;;2.20;;
75441;SDS011;64019;48.312;14.226;2023-07-31T05:52:25;5.23;;;2.30;;
75441;SDS011;64019;48.312;14.226;2023-07-31T05:54:51;3.37;;;2.27;;
75441;SDS011;64019;48.312;14.226;2023-07-31T05:57:17;7.50;;;2.30;;
75441;SDS011;64019;48.312;14.226;2023-07-31T05:59:43;7.40;;;2.10;;
75441;SDS011;64019;48.312;14.226;2023-07-31T06:02:08;6.43;;;1.63;;
75441;SDS011;64019;48.312;14.226;2023-07-31T06:04:34;5.43;;;1.40;;
75441;SDS011;64019;48.312;14.226;2023-07-31T06:07:00;2.23;;;1.60;;
75441;SDS011;64019;48.312;14.226;2023-07-31T06:09:25;4.90;;;1.93;;
75441;SDS011;64019;48.312;14.226;2023-07-31T06:11:51;4.53;;;1.60;;
75441;SDS011;64019;48.312;14.226;2023-07-31T06:14:17;3.90;;;1.63;;
75441;SDS011;64019;48.312;14.226;2023-07-31T06:16:44;3.57;;;1.77;;
75441;SDS011;64019;48.312;14.226;2023-07-31T06:19:09;5.73;;;2.07;;
75441;SDS011;64019;48.312;14.226;2023-07-31T06:21:35;4.27;;;1.47;;
75441;SDS011;64019;48.312;14.226;2023-07-31T06:24:05;5.57;;;1.50;;
75441;SDS011;64019;48.312;14.226;2023-07-31T06:26:30;8.37;;;2.20;;
75441;SDS011;64019;48.312;14.226;2023-07-31T06:28:56;5.97;;;1.43;;
75441;SDS011;64019;48.312;14.226;2023-07-31T06:31:22;4.57;;;1.80;;
75441;SDS011;64019;48.312;14.226;2023-07-31T06:33:51;5.70;;;1.63;;
75441;SDS011;64019;48.312;14.226;2023-07-31T06:49:13;4.00;;;1.47;;
75441;SDS011;64019;48.312;14.226;2023-07-31T06:51:42;3.47;;;1.53;;
75441;SDS011;64019;48.312;14.226;2023-07-31T06:54:09;3.17;;;1.90;;
75441;SDS011;64019;48.312;14.226;2023-07-31T06:56:34;4.73;;;1.67;;
75441;SDS011;64019;48.312;14.226;2023-07-31T06:59:00;5.17;;;1.40;;
75441;SDS011;64019;48.312;14.226;2023-07-31T07:01:26;6.37;;;1.50;;
75441;SDS011;64019;48.312;14.226;2023-07-31T07:03:52;4.67;;;1.60;;
75441;SDS011;64019;48.312;14.226;2023-07-31T07:06:18;3.03;;;1.30;;
75441;SDS011;64019;48.312;14.226;2023-07-31T07:08:44;3.00;;;1.63;;
75441;SDS011;64019;48.312;14.226;2023-07-31T07:11:10;2.73;;;1.40;;
75441;SDS011;64019;48.312;14.226;2023-07-31T07:13:35;5.63;;;1.33;;
75441;SDS011;64019;48.312;14.226;2023-07-31T07:16:01;6.03;;;1.70;;
75441;SDS011;64019;48.312;14.226;2023-07-31T07:18:27;4.00;;;1.37;;
75441;SDS011;64019;48.312;14.226;2023-07-31T07:20:53;6.93;;;1.30;;
75441;SDS011;64019;48.312;14.226;2023-07-31T07:23:19;4.77;;;1.73;;
75441;SDS011;64019;48.312;14.226;2023-07-31T07:25:46;3.53;;;1.10;;
75441;SDS011;64019;48.312;14.226;2023-07-31T07:28:12;5.43;;;1.43;;
75441;SDS011;64019;48.312;14.226;2023-07-31T07:30:39;3.13;;;1.60;;
75441;SDS011;64019;48.312;14.226;2023-07-31T07:33:04;3.07;;;1.40;;
75441;SDS011;64019;48.312;14.226;2023-07-31T07:35:32;4.80;;;1.30;;
75441;SDS011;64019;48.312;14.226;2023-07-31T07:37:59;3.40;;;1.30;;
75441;SDS011;64019;48.312;14.226;2023-07-31T07:40:25;3.37;;;1.40;;
75441;SDS011;64019;48.312;14.226;2023-07-31T07:42:51;5.57;;;2.13;;
75441;SDS011;64019;48.312;14.226;2023-07-31T07:45:17;2.57;;;1.50;;
75441;SDS011;64019;48.312;14.226;2023-07-31T07:47:42;2.00;;;1.30;;
75441;SDS011;64019;48.312;14.226;2023-07-31T07:50:08;3.13;;;1.30;;
75441;SDS011;64019;48.312;14.226;2023-07-31T07:52:34;2.63;;;1.20;;
75441;SDS011;64019;48.312;14.226;2023-07-31T07:55:00;4.83;;;1.40;;
75441;SDS011;64019;48.312;14.226;2023-07-31T07:57:26;4.87;;;1.20;;
75441;SDS011;64019;48.312;14.226;2023-07-31T07:59:52;3.03;;;1.60;;
75441;SDS011;64019;48.312;14.226;2023-07-31T08:02:17;2.30;;;1.23;;
75441;SDS011;64019;48.312;14.226;2023-07-31T08:04:43;4.27;;;1.30;;
75441;SDS011;64019;48.312;14.226;2023-07-31T08:07:12;4.40;;;1.40;;
75441;SDS011;64019;48.312;14.226;2023-07-31T08:09:38;2.27;;;1.30;;
75441;SDS011;64019;48.312;14.226;2023-07-31T08:12:04;4.33;;;1.87;;
75441;SDS011;64019;48.312;14.226;2023-07-31T08:14:30;4.90;;;1.40;;
75441;SDS011;64019;48.312;14.226;2023-07-31T08:16:56;4.47;;;1.33;;
75441;SDS011;64019;48.312;14.226;2023-07-31T08:19:22;4.23;;;1.57;;
75441;SDS011;64019;48.312;14.226;2023-07-31T08:21:47;1.90;;;1.10;;
75441;SDS011;64019;48.312;14.226;2023-07-31T08:24:13;3.77;;;1.47;;
75441;SDS011;64019;48.312;14.226;2023-07-31T08:26:38;5.20;;;1.43;;
75441;SDS011;64019;48.312;14.226;2023-07-31T08:29:04;4.27;;;1.10;;
75441;SDS011;64019;48.312;14.226;2023-07-31T08:31:30;1.73;;;1.10;;
75441;SDS011;64019;48.312;14.226;2023-07-31T08:33:56;2.73;;;1.20;;
75441;SDS011;64019;48.312;14.226;2023-07-31T08:36:21;5.13;;;1.50;;
75441;SDS011;64019;48.312;14.226;2023-07-31T08:38:47;4.50;;;1.60;;
75441;SDS011;64019;48.312;14.226;2023-07-31T08:41:13;4.60;;;1.50;;
75441;SDS011;64019;48.312;14.226;2023-07-31T08:43:38;5.83;;;1.30;;
75441;SDS011;64019;48.312;14.226;2023-07-31T08:46:05;10.20;;;1.73;;
75441;SDS011;64019;48.312;14.226;2023-07-31T08:48:31;3.57;;;1.37;;
75441;SDS011;64019;48.312;14.226;2023-07-31T08:50:58;2.60;;;1.20;;
75441;SDS011;64019;48.312;14.226;2023-07-31T08:53:24;8.20;;;1.50;;
75441;SDS011;64019;48.312;14.226;2023-07-31T08:55:50;3.27;;;1.30;;
75441;SDS011;64019;48.312;14.226;2023-07-31T08:58:18;6.03;;;1.67;;
75441;SDS011;64019;48.312;14.226;2023-07-31T09:00:45;2.00;;;1.07;;
75441;SDS011;64019;48.312;14.226;2023-07-31T09:03:16;2.50;;;1.30;;
75441;SDS011;64019;48.312;14.226;2023-07-31T09:05:44;7.27;;;1.60;;
75441;SDS011;64019;48.312;14.226;2023-07-31T09:08:12;5.90;;;1.50;;
75441;SDS011;64019;48.312;14.226;2023-07-31T09:10:41;1.93;;;1.13;;
75441;SDS011;64019;48.312;14.226;2023-07-31T09:13:08;3.47;;;1.43;;
75441;SDS011;64019;48.312;14.226;2023-07-31T09:15:35;3.43;;;1.27;;
75441;SDS011;64019;48.312;14.226;2023-07-31T09:18:02;3.17;;;1.30;;
75441;SDS011;64019;48.312;14.226;2023-07-31T09:20:28;4.87;;;1.70;;
75441;SDS011;64019;48.312;14.226;2023-07-31T09:22:54;2.30;;;1.10;;
75441;SDS011;64019;48.312;14.226;2023-07-31T09:25:21;4.03;;;1.40;;
75441;SDS011;64019;48.312;14.226;2023-07-31T09:27:51;2.23;;;1.40;;
75441;SDS011;64019;48.312;14.226;2023-07-31T09:30:22;5.70;;;1.80;;
75441;SDS011;64019;48.312;14.226;2023-07-31T09:32:48;3.87;;;1.40;;
75441;SDS011;64019;48.312;14.226;2023-07-31T09:37:53;3.17;;;1.37;;
75441;SDS011;64019;48.312;14.226;2023-07-31T09:43:00;5.43;;;1.40;;
75441;SDS011;64019;48.312;14.226;2023-07-31T09:45:34;2.33;;;1.30;;
75441;SDS011;64019;48.312;14.226;2023-07-31T09:48:06;1.67;;;1.20;;
75441;SDS011;64019;48.312;14.226;2023-07-31T09:50:34;2.70;;;1.30;;
75441;SDS011;64019;48.312;14.226;2023-07-31T09:53:06;3.33;;;1.13;;
75441;SDS011;64019;48.312;14.226;2023-07-31T09:55:33;7.27;;;1.60;;
75441;SDS011;64019;48.312;14.226;2023-07-31T09:58:01;2.77;;;1.27;;
75441;SDS011;64019;48.312;14.226;2023-07-31T10:00:29;6.13;;;1.10;;
75441;SDS011;64019;48.312;14.226;2023-07-31T10:02:57;3.07;;;1.00;;
75441;SDS011;64019;48.312;14.226;2023-07-31T10:05:24;6.77;;;1.50;;
75441;SDS011;64019;48.312;14.226;2023-07-31T10:07:58;6.77;;;1.53;;
75441;SDS011;64019;48.312;14.226;2023-07-31T10:10:25;1.97;;;1.20;;
75441;SDS011;64019;48.312;14.226;2023-07-31T10:12:52;7.60;;;1.80;;
75441;SDS011;64019;48.312;14.226;2023-07-31T10:15:19;6.13;;;1.27;;
75441;SDS011;64019;48.312;14.226;2023-07-31T10:17:48;3.13;;;1.33;;
75441;SDS011;64019;48.312;14.226;2023-07-31T10:20:15;4.30;;;1.40;;
75441;SDS011;64019;48.312;14.226;2023-07-31T10:22:41;5.17;;;1.47;;
75441;SDS011;64019;48.312;14.226;2023-07-31T10:25:08;2.73;;;1.40;;
75441;SDS011;64019;48.312;14.226;2023-07-31T10:27:40;2.97;;;1.37;;
75441;SDS011;64019;48.312;14.226;2023-07-31T10:30:08;1.83;;;1.17;;
75441;SDS011;64019;48.312;14.226;2023-07-31T10:32:36;4.03;;;1.43;;
75441;SDS011;64019;48.312;14.226;2023-07-31T10:35:06;3.87;;;1.47;;
75441;SDS011;64019;48.312;14.226;2023-07-31T10:40:11;4.73;;;1.30;;
75441;SDS011;64019;48.312;14.226;2023-07-31T10:42:45;3.27;;;1.30;;
75441;SDS011;64019;48.312;14.226;2023-07-31T10:45:14;4.73;;;1.47;;
75441;SDS011;64019;48.312;14.226;2023-07-31T10:47:50;2.97;;;1.27;;
75441;SDS011;64019;48.312;14.226;2023-07-31T10:50:27;3.73;;;1.27;;
75441;SDS011;64019;48.312;14.226;2023-07-31T10:52:54;4.27;;;1.13;;
75441;SDS011;64019;48.312;14.226;2023-07-31T10:57:58;3.97;;;1.60;;
75441;SDS011;64019;48.312;14.226;2023-07-31T11:00:31;5.13;;;1.50;;
75441;SDS011;64019;48.312;14.226;2023-07-31T11:08:23;2.07;;;1.07;;
75441;SDS011;64019;48.312;14.226;2023-07-31T11:10:51;3.40;;;1.10;;
75441;SDS011;64019;48.312;14.226;2023-07-31T11:15:55;3.70;;;1.00;;
75441;SDS011;64019;48.312;14.226;2023-07-31T11:18:21;3.37;;;1.47;;
75441;SDS011;64019;48.312;14.226;2023-07-31T11:20:47;2.03;;;1.40;;
75441;SDS011;64019;48.312;14.226;2023-07-31T11:23:15;1.83;;;1.20;;
75441;SDS011;64019;48.312;14.226;2023-07-31T11:25:42;2.27;;;1.20;;
75441;SDS011;64019;48.312;14.226;2023-07-31T11:28:12;2.63;;;1.23;;
75441;SDS011;64019;48.312;14.226;2023-07-31T11:30:39;5.43;;;1.40;;
75441;SDS011;64019;48.312;14.226;2023-07-31T11:33:06;1.90;;;1.10;;
75441;SDS011;64019;48.312;14.226;2023-07-31T11:35:33;3.53;;;1.30;;
75441;SDS011;64019;48.312;14.226;2023-07-31T11:38:00;2.70;;;1.30;;
75441;SDS011;64019;48.312;14.226;2023-07-31T11:40:26;4.27;;;1.20;;
75441;SDS011;64019;48.312;14.226;2023-07-31T11:42:56;3.70;;;1.20;;
75441;SDS011;64019;48.312;14.226;2023-07-31T11:45:28;2.67;;;0.80;;
75441;SDS011;64019;48.312;14.226;2023-07-31T11:47:55;4.30;;;1.37;;
75441;SDS011;64019;48.312;14.226;2023-07-31T12:04:05;1.70;;;1.17;;
75441;SDS011;64019;48.312;14.226;2023-07-31T12:06:32;2.57;;;1.20;;
75441;SDS011;64019;48.312;14.226;2023-07-31T12:09:04;5.57;;;1.20;;
75441;SDS011;64019;48.312;14.226;2023-07-31T12:11:30;1.50;;;1.10;;
75441;SDS011;64019;48.312;14.226;2023-07-31T12:13:56;2.60;;;1.30;;
75441;SDS011;64019;48.312;14.226;2023-07-31T12:16:25;3.03;;;1.30;;
75441;SDS011;64019;48.312;14.226;2023-07-31T12:18:52;5.07;;;1.60;;
75441;SDS011;64019;48.312;14.226;2023-07-31T12:21:18;4.30;;;1.37;;
75441;SDS011;64019;48.312;14.226;2023-07-31T12:23:45;2.30;;;1.60;;
75441;SDS011;64019;48.312;14.226;2023-07-31T12:26:14;2.83;;;1.57;;
75441;SDS011;64019;48.312;14.226;2023-07-31T12:28:43;2.27;;;1.40;;
75441;SDS011;64019;48.312;14.226;2023-07-31T12:33:42;2.73;;;1.30;;
75441;SDS011;64019;48.312;14.226;2023-07-31T12:36:09;2.80;;;1.50;;
75441;SDS011;64019;48.312;14.226;2023-07-31T12:45:25;2.63;;;1.33;;
75441;SDS011;64019;48.312;14.226;2023-07-31T12:47:51;3.03;;;1.30;;
75441;SDS011;64019;48.312;14.226;2023-07-31T12:50:16;5.00;;;1.60;;
75441;SDS011;64019;48.312;14.226;2023-07-31T12:52:42;3.07;;;1.40;;
75441;SDS011;64019;48.312;14.226;2023-07-31T12:55:07;2.60;;;1.20;;
75441;SDS011;64019;48.312;14.226;2023-07-31T12:57:33;2.50;;;1.47;;
75441;SDS011;64019;48.312;14.226;2023-07-31T12:59:59;5.90;;;1.43;;
75441;SDS011;64019;48.312;14.226;2023-07-31T13:02:25;5.67;;;1.80;;
75441;SDS011;64019;48.312;14.226;2023-07-31T13:04:50;2.10;;;1.27;;
75441;SDS011;64019;48.312;14.226;2023-07-31T13:07:16;2.10;;;1.40;;
75441;SDS011;64019;48.312;14.226;2023-07-31T13:09:42;4.73;;;1.60;;
75441;SDS011;64019;48.312;14.226;2023-07-31T13:12:07;2.30;;;1.47;;
75441;SDS011;64019;48.312;14.226;2023-07-31T13:14:33;5.80;;;1.73;;
75441;SDS011;64019;48.312;14.226;2023-07-31T13:16:59;4.00;;;1.90;;
75441;SDS011;64019;48.312;14.226;2023-07-31T13:19:24;3.40;;;1.70;;
75441;SDS011;64019;48.312;14.226;2023-07-31T13:21:50;2.00;;;1.37;;
75441;SDS011;64019;48.312;14.226;2023-07-31T13:24:16;3.70;;;1.40;;
75441;SDS011;64019;48.312;14.226;2023-07-31T13:26:41;3.63;;;1.60;;
75441;SDS011;64019;48.312;14.226;2023-07-31T13:29:07;2.70;;;1.73;;
75441;SDS011;64019;48.312;14.226;2023-07-31T13:31:33;3.33;;;1.67;;
75441;SDS011;64019;48.312;14.226;2023-07-31T13:33:58;3.23;;;1.83;;
75441;SDS011;64019;48.312;14.226;2023-07-31T13:36:24;3.23;;;1.57;;
75441;SDS011;64019;48.312;14.226;2023-07-31T13:38:49;3.83;;;1.70;;
75441;SDS011;64019;48.312;14.226;2023-07-31T13:41:15;4.07;;;1.80;;
75441;SDS011;64019;48.312;14.226;2023-07-31T13:43:40;2.20;;;1.57;;
75441;SDS011;64019;48.312;14.226;2023-07-31T13:46:06;3.47;;;1.73;;
75441;SDS011;64019;48.312;14.226;2023-07-31T13:48:36;3.27;;;1.80;;
75441;SDS011;64019;48.312;14.226;2023-07-31T13:51:02;3.13;;;1.67;;
75441;SDS011;64019;48.312;14.226;2023-07-31T13:53:27;4.70;;;2.10;;
75441;SDS011;64019;48.312;14.226;2023-07-31T13:55:53;3.60;;;1.50;;
75441;SDS011;64019;48.312;14.226;2023-07-31T13:58:20;4.13;;;1.60;;
75441;SDS011;64019;48.312;14.226;2023-07-31T14:00:46;4.77;;;1.70;;
75441;SDS011;64019;48.312;14.226;2023-07-31T14:03:11;2.57;;;1.60;;
75441;SDS011;64019;48.312;14.226;2023-07-31T14:05:37;2.53;;;1.50;;
75441;SDS011;64019;48.312;14.226;2023-07-31T14:08:03;3.97;;;1.57;;
75441;SDS011;64019;48.312;14.226;2023-07-31T14:10:29;3.43;;;1.57;;
75441;SDS011;64019;48.312;14.226;2023-07-31T14:12:54;2.27;;;1.30;;
75441;SDS011;64019;48.312;14.226;2023-07-31T14:15:20;2.03;;;1.63;;
75441;SDS011;64019;48.312;14.226;2023-07-31T14:17:46;2.73;;;1.33;;
75441;SDS011;64019;48.312;14.226;2023-07-31T14:20:11;3.17;;;1.40;;
75441;SDS011;64019;48.312;14.226;2023-07-31T14:22:37;3.83;;;1.53;;
75441;SDS011;64019;48.312;14.226;2023-07-31T14:25:03;3.43;;;1.83;;
75441;SDS011;64019;48.312;14.226;2023-07-31T14:27:29;4.10;;;1.80;;
75441;SDS011;64019;48.312;14.226;2023-07-31T14:29:55;3.00;;;1.67;;
75441;SDS011;64019;48.312;14.226;2023-07-31T14:32:23;4.23;;;1.47;;
75441;SDS011;64019;48.312;14.226;2023-07-31T14:34:50;5.37;;;1.67;;
75441;SDS011;64019;48.312;14.226;2023-07-31T14:37:16;1.73;;;1.27;;
75441;SDS011;64019;48.312;14.226;2023-07-31T14:39:42;5.33;;;1.57;;
75441;SDS011;64019;48.312;14.226;2023-07-31T14:42:08;3.63;;;1.73;;
75441;SDS011;64019;48.312;14.226;2023-07-31T14:44:34;6.47;;;1.80;;
75441;SDS011;64019;48.312;14.226;2023-07-31T14:47:00;3.20;;;1.50;;
75441;SDS011;64019;48.312;14.226;2023-07-31T14:49:25;2.07;;;1.40;;
75441;SDS011;64019;48.312;14.226;2023-07-31T14:51:53;4.47;;;1.90;;
75441;SDS011;64019;48.312;14.226;2023-07-31T14:54:19;5.90;;;2.17;;
75441;SDS011;64019;48.312;14.226;2023-07-31T14:56:45;4.73;;;1.53;;
75441;SDS011;64019;48.312;14.226;2023-07-31T14:59:10;1.93;;;1.60;;
75441;SDS011;64019;48.312;14.226;2023-07-31T15:01:36;2.87;;;2.13;;
75441;SDS011;64019;48.312;14.226;2023-07-31T15:10:48;5.83;;;2.00;;
75441;SDS011;64019;48.312;14.226;2023-07-31T15:13:14;4.43;;;1.60;;
75441;SDS011;64019;48.312;14.226;2023-07-31T15:15:40;3.50;;;2.10;;
75441;SDS011;64019;48.312;14.226;2023-07-31T15:35:11;2.77;;;1.60;;
75441;SDS011;64019;48.312;14.226;2023-07-31T15:37:37;1.73;;;1.40;;
75441;SDS011;64019;48.312;14.226;2023-07-31T15:40:03;2.97;;;1.83;;
75441;SDS011;64019;48.312;14.226;2023-07-31T15:42:28;2.33;;;1.50;;
75441;SDS011;64019;48.312;14.226;2023-07-31T15:44:55;3.37;;;1.73;;
75441;SDS011;64019;48.312;14.226;2023-07-31T15:47:21;3.03;;;1.50;;
75441;SDS011;64019;48.312;14.226;2023-07-31T15:49:46;2.73;;;1.63;;
75441;SDS011;64019;48.312;14.226;2023-07-31T15:52:12;3.00;;;1.67;;
75441;SDS011;64019;48.312;14.226;2023-07-31T15:54:38;3.13;;;1.97;;
75441;SDS011;64019;48.312;14.226;2023-07-31T15:57:03;2.50;;;1.87;;
75441;SDS011;64019;48.312;14.226;2023-07-31T15:59:29;3.27;;;1.63;;
75441;SDS011;64019;48.312;14.226;2023-07-31T16:01:55;2.87;;;1.90;;
75441;SDS011;64019;48.312;14.226;2023-07-31T16:04:20;2.73;;;1.50;;
75441;SDS011;64019;48.312;14.226;2023-07-31T16:06:46;3.50;;;1.67;;
75441;SDS011;64019;48.312;14.226;2023-07-31T16:09:11;4.37;;;1.70;;
75441;SDS011;64019;48.312;14.226;2023-07-31T16:11:37;4.70;;;1.77;;
75441;SDS011;64019;48.312;14.226;2023-07-31T16:14:03;1.90;;;1.53;;
75441;SDS011;64019;48.312;14.226;2023-07-31T16:16:28;4.83;;;1.83;;
75441;SDS011;64019;48.312;14.226;2023-07-31T16:18:54;3.13;;;1.50;;
75441;SDS011;64019;48.312;14.226;2023-07-31T16:21:20;2.47;;;1.67;;
75441;SDS011;64019;48.312;14.226;2023-07-31T16:34:01;3.77;;;1.57;;
75441;SDS011;64019;48.312;14.226;2023-07-31T16:36:38;3.07;;;1.97;;
75441;SDS011;64019;48.312;14.226;2023-07-31T16:39:07;6.87;;;2.20;;
75441;SDS011;64019;48.312;14.226;2023-07-31T16:41:36;6.53;;;2.27;;
75441;SDS011;64019;48.312;14.226;2023-07-31T16:44:13;2.23;;;1.83;;
75441;SDS011;64019;48.312;14.226;2023-07-31T16:46:40;3.87;;;1.87;;
75441;SDS011;64019;48.312;14.226;2023-07-31T16:52:29;1.80;;;1.50;;
75441;SDS011;64019;48.312;14.226;2023-07-31T16:55:07;3.20;;;1.60;;
75441;SDS011;64019;48.312;14.226;2023-07-31T16:57:32;4.67;;;1.70;;
75441;SDS011;64019;48.312;14.226;2023-07-31T16:59:58;6.30;;;1.70;;